sensor_id;sensor_type;location;lat;lon;timestamp;pressure;altitude;pressure_sealevel;temperature;humidity
58775;BME280;44545;47.480;19.024;2023-03-21T04:10:16;100047.72;;;10.73;74.88
58775;BME280;44545;47.480;19.024;2023-03-21T04:13:19;100052.31;;;10.60;75.38
58775;BME280;44545;47.480;19.024;2023-03-21T04:16:22;100060.75;;;10.55;75.59
58775;BME280;44545;47.480;19.024;2023-03-21T04:19:25;100058.47;;;10.61;75.26
58775;BME280;44545;47.480;19.024;2023-03-21T04:22:28;100068.28;;;10.67;75.01
58775;BME280;44545;47.480;19.024;2023-03-21T04:25:34;100064.47;;;10.60;75.33
58775;BME280;44545;47.480;19.024;2023-03-21T04:28:41;100073.88;;;10.56;75.74
58775;BME280;44545;47.480;19.024;2023-03-21T04:31:44;100067.31;;;10.47;76.15
58775;BME280;44545;47.480;19.024;2023-03-21T04:34:47;100069.31;;;10.34;77.01
58775;BME280;44545;47.480;19.024;2023-03-21T04:37:51;100063.78;;;10.28;77.40
58775;BME280;44545;47.480;19.024;2023-03-21T04:40:53;100066.78;;;10.19;77.71
58775;BME280;44545;47.480;19.024;2023-03-21T04:43:56;100069.44;;;10.03;78.71
58775;BME280;44545;47.480;19.024;2023-03-21T04:46:58;100064.03;;;10.00;79.47
58775;BME280;44545;47.480;19.024;2023-03-21T04:50:02;100056.75;;;9.93;79.81
58775;BME280;44545;47.480;19.024;2023-03-21T04:53:04;100061.47;;;9.84;80.79
58775;BME280;44545;47.480;19.024;2023-03-21T04:56:07;100045.97;;;9.69;81.29
58775;BME280;44545;47.480;19.024;2023-03-21T04:59:12;100068.84;;;9.58;82.11
58775;BME280;44545;47.480;19.024;2023-03-21T05:02:15;100065.09;;;9.53;82.68
58775;BME280;44545;47.480;19.024;2023-03-21T05:05:17;100074.50;;;9.51;82.84
58775;BME280;44545;47.480;19.024;2023-03-21T05:08:20;100068.56;;;9.53;83.02
58775;BME280;44545;47.480;19.024;2023-03-21T05:11:22;100072.06;;;9.54;83.06
58775;BME280;44545;47.480;19.024;2023-03-21T05:14:25;100088.59;;;9.54;83.18
58775;BME280;44545;47.480;19.024;2023-03-21T05:17:28;100085.28;;;9.57;83.28
58775;BME280;44545;47.480;19.024;2023-03-21T05:20:32;100088.34;;;9.66;82.95
58775;BME280;44545;47.480;19.024;2023-03-21T05:23:37;100078.09;;;9.69;82.80
58775;BME280;44545;47.480;19.024;2023-03-21T05:26:43;100087.22;;;9.77;82.42
58775;BME280;44545;47.480;19.024;2023-03-21T05:29:51;100077.56;;;10.09;81.49
58775;BME280;44545;47.480;19.024;2023-03-21T05:32:54;100081.75;;;10.58;79.22
58775;BME280;44545;47.480;19.024;2023-03-21T05:35:57;100080.91;;;11.13;76.22
58775;BME280;44545;47.480;19.024;2023-03-21T05:39:03;100085.50;;;11.56;72.65
58775;BME280;44545;47.480;19.024;2023-03-21T05:42:08;100091.75;;;11.59;72.84
58775;BME280;44545;47.480;19.024;2023-03-21T05:45:12;100088.47;;;11.83;71.38
58775;BME280;44545;47.480;19.024;2023-03-21T05:48:14;100095.00;;;12.33;69.35
58775;BME280;44545;47.480;19.024;2023-03-21T05:51:22;100097.13;;;13.06;66.03
58775;BME280;44545;47.480;19.024;2023-03-21T05:54:24;100095.41;;;13.28;64.54
58775;BME280;44545;47.480;19.024;2023-03-21T05:57:27;100105.06;;;12.64;66.24
58775;BME280;44545;47.480;19.024;2023-03-21T06:00:30;100097.97;;;12.41;67.50
58775;BME280;44545;47.480;19.024;2023-03-21T06:03:34;100101.28;;;12.16;68.69
58775;BME280;44545;47.480;19.024;2023-03-21T06:06:36;100099.13;;;12.07;69.02
58775;BME280;44545;47.480;19.024;2023-03-21T06:09:38;100105.25;;;12.07;68.99
58775;BME280;44545;47.480;19.024;2023-03-21T06:12:41;100104.13;;;12.22;68.61
58775;BME280;44545;47.480;19.024;2023-03-21T06:15:45;100098.22;;;12.26;68.26
58775;BME280;44545;47.480;19.024;2023-03-21T06:18:48;100105.09;;;12.45;67.85
58775;BME280;44545;47.480;19.024;2023-03-21T06:21:51;100108.03;;;12.52;67.21
58775;BME280;44545;47.480;19.024;2023-03-21T06:24:54;100104.97;;;12.84;65.95
58775;BME280;44545;47.480;19.024;2023-03-21T06:27:56;100110.00;;;13.00;65.31
58775;BME280;44545;47.480;19.024;2023-03-21T06:30:59;100097.66;;;14.63;60.39
58775;BME280;44545;47.480;19.024;2023-03-21T06:34:02;100086.25;;;17.49;51.18
58775;BME280;44545;47.480;19.024;2023-03-21T06:37:04;100085.56;;;17.99;47.62
58775;BME280;44545;47.480;19.024;2023-03-21T06:40:07;100082.28;;;19.14;45.14
58775;BME280;44545;47.480;19.024;2023-03-21T06:43:10;100089.69;;;18.80;45.09
58775;BME280;44545;47.480;19.024;2023-03-21T06:46:13;100091.06;;;16.55;50.34
58775;BME280;44545;47.480;19.024;2023-03-21T06:49:17;100098.72;;;15.81;52.64
58775;BME280;44545;47.480;19.024;2023-03-21T06:52:20;100099.91;;;15.33;54.46
58775;BME280;44545;47.480;19.024;2023-03-21T06:55:22;100104.44;;;15.37;55.13
58775;BME280;44545;47.480;19.024;2023-03-21T06:58:28;100110.72;;;15.71;54.45
58775;BME280;44545;47.480;19.024;2023-03-21T07:01:30;100109.25;;;15.81;53.56
58775;BME280;44545;47.480;19.024;2023-03-21T07:04:34;100111.09;;;16.83;51.41
58775;BME280;44545;47.480;19.024;2023-03-21T07:07:38;100095.50;;;19.75;43.93
58775;BME280;44545;47.480;19.024;2023-03-21T07:10:42;100098.63;;;20.20;41.95
58775;BME280;44545;47.480;19.024;2023-03-21T07:13:47;100104.69;;;20.96;40.18
58775;BME280;44545;47.480;19.024;2023-03-21T07:16:50;100097.16;;;21.69;38.89
58775;BME280;44545;47.480;19.024;2023-03-21T07:19:52;100106.44;;;21.00;39.42
58775;BME280;44545;47.480;19.024;2023-03-21T07:22:56;100100.03;;;22.22;37.17
58775;BME280;44545;47.480;19.024;2023-03-21T07:26:00;100084.81;;;23.90;33.63
58775;BME280;44545;47.480;19.024;2023-03-21T07:29:03;100090.16;;;25.12;31.44
58775;BME280;44545;47.480;19.024;2023-03-21T07:32:06;100092.91;;;23.56;33.28
58775;BME280;44545;47.480;19.024;2023-03-21T07:35:13;100096.56;;;22.94;34.39
58775;BME280;44545;47.480;19.024;2023-03-21T07:38:18;100090.28;;;23.41;33.66
58775;BME280;44545;47.480;19.024;2023-03-21T07:41:21;100099.53;;;21.23;36.42
58775;BME280;44545;47.480;19.024;2023-03-21T07:44:24;100102.66;;;20.66;37.64
58775;BME280;44545;47.480;19.024;2023-03-21T07:47:28;100098.78;;;20.35;38.64
58775;BME280;44545;47.480;19.024;2023-03-21T07:50:31;100097.03;;;20.37;38.22
58775;BME280;44545;47.480;19.024;2023-03-21T07:53:35;100093.75;;;22.05;35.92
58775;BME280;44545;47.480;19.024;2023-03-21T07:56:37;100088.28;;;21.62;36.30
58775;BME280;44545;47.480;19.024;2023-03-21T07:59:40;100088.50;;;22.20;35.67
58775;BME280;44545;47.480;19.024;2023-03-21T08:02:42;100091.22;;;22.86;33.70
58775;BME280;44545;47.480;19.024;2023-03-21T08:05:45;100095.53;;;22.12;34.74
58775;BME280;44545;47.480;19.024;2023-03-21T08:08:50;100093.63;;;21.71;36.04
58775;BME280;44545;47.480;19.024;2023-03-21T08:11:53;100098.63;;;21.19;35.89
58775;BME280;44545;47.480;19.024;2023-03-21T08:14:55;100091.56;;;21.24;35.58
58775;BME280;44545;47.480;19.024;2023-03-21T08:18:00;100084.13;;;22.81;32.97
58775;BME280;44545;47.480;19.024;2023-03-21T08:21:03;100086.69;;;23.51;31.65
58775;BME280;44545;47.480;19.024;2023-03-21T08:24:05;100089.06;;;21.44;34.01
58775;BME280;44545;47.480;19.024;2023-03-21T08:27:08;100094.50;;;19.68;36.90
58775;BME280;44545;47.480;19.024;2023-03-21T08:30:11;100097.16;;;19.68;38.11
58775;BME280;44545;47.480;19.024;2023-03-21T08:33:14;100094.25;;;20.22;36.76
58775;BME280;44545;47.480;19.024;2023-03-21T08:36:19;100088.72;;;20.02;37.50
58775;BME280;44545;47.480;19.024;2023-03-21T08:39:22;100097.31;;;19.81;37.69
58775;BME280;44545;47.480;19.024;2023-03-21T08:42:26;100090.50;;;20.01;37.76
58775;BME280;44545;47.480;19.024;2023-03-21T08:45:29;100096.91;;;19.53;38.13
58775;BME280;44545;47.480;19.024;2023-03-21T08:48:31;100099.75;;;20.42;36.48
58775;BME280;44545;47.480;19.024;2023-03-21T08:51:34;100099.62;;;20.31;36.12
58775;BME280;44545;47.480;19.024;2023-03-21T08:54:38;100093.53;;;20.40;36.80
58775;BME280;44545;47.480;19.024;2023-03-21T08:57:43;100101.69;;;20.58;35.53
58775;BME280;44545;47.480;19.024;2023-03-21T09:00:46;100091.63;;;21.30;34.30
58775;BME280;44545;47.480;19.024;2023-03-21T09:03:48;100089.28;;;23.70;31.17
58775;BME280;44545;47.480;19.024;2023-03-21T09:06:51;100085.25;;;26.28;27.58
58775;BME280;44545;47.480;19.024;2023-03-21T09:09:53;100076.66;;;27.18;26.18
58775;BME280;44545;47.480;19.024;2023-03-21T09:13:15;100086.19;;;26.23;27.10
58775;BME280;44545;47.480;19.024;2023-03-21T09:16:17;100086.97;;;25.61;27.48
58775;BME280;44545;47.480;19.024;2023-03-21T09:19:20;100092.59;;;24.26;29.02
58775;BME280;44545;47.480;19.024;2023-03-21T09:22:22;100094.69;;;23.51;30.14
58775;BME280;44545;47.480;19.024;2023-03-21T09:25:26;100098.28;;;23.33;30.44
58775;BME280;44545;47.480;19.024;2023-03-21T09:28:32;100102.63;;;22.12;31.86
58775;BME280;44545;47.480;19.024;2023-03-21T09:31:36;100096.53;;;22.63;30.96
58775;BME280;44545;47.480;19.024;2023-03-21T09:34:38;100090.34;;;23.06;30.47
58775;BME280;44545;47.480;19.024;2023-03-21T09:37:42;100097.41;;;22.38;32.13
58775;BME280;44545;47.480;19.024;2023-03-21T09:41:00;100101.84;;;22.56;32.06
58775;BME280;44545;47.480;19.024;2023-03-21T09:47:48;100099.00;;;23.92;28.67
58775;BME280;44545;47.480;19.024;2023-03-21T09:50:54;100090.72;;;27.29;25.77
58775;BME280;44545;47.480;19.024;2023-03-21T09:54:04;100075.91;;;29.45;21.58
58775;BME280;44545;47.480;19.024;2023-03-21T09:57:26;100079.78;;;27.41;24.20
58775;BME280;44545;47.480;19.024;2023-03-21T10:00:37;100088.31;;;26.01;26.20
58775;BME280;44545;47.480;19.024;2023-03-21T10:03:41;100077.84;;;25.81;27.00
58775;BME280;44545;47.480;19.024;2023-03-21T10:06:54;100085.28;;;24.58;28.10
58775;BME280;44545;47.480;19.024;2023-03-21T10:10:01;100084.87;;;23.64;30.20
58775;BME280;44545;47.480;19.024;2023-03-21T10:13:12;100087.69;;;22.52;30.95
58775;BME280;44545;47.480;19.024;2023-03-21T10:16:30;100074.06;;;28.02;23.43
58775;BME280;44545;47.480;19.024;2023-03-21T10:19:33;100061.47;;;31.91;19.40
58775;BME280;44545;47.480;19.024;2023-03-21T10:22:37;100066.47;;;32.70;17.55
58775;BME280;44545;47.480;19.024;2023-03-21T10:25:44;100065.56;;;29.31;21.09
58775;BME280;44545;47.480;19.024;2023-03-21T10:28:49;100067.31;;;28.24;22.45
58775;BME280;44545;47.480;19.024;2023-03-21T10:31:54;100064.41;;;29.39;20.92
58775;BME280;44545;47.480;19.024;2023-03-21T10:34:59;100060.87;;;29.70;20.69
58775;BME280;44545;47.480;19.024;2023-03-21T10:38:03;100058.69;;;30.96;19.36
58775;BME280;44545;47.480;19.024;2023-03-21T10:41:06;100051.66;;;30.37;20.25
58775;BME280;44545;47.480;19.024;2023-03-21T10:44:15;100061.44;;;32.60;17.55
58775;BME280;44545;47.480;19.024;2023-03-21T10:47:29;100043.56;;;34.55;15.38
58775;BME280;44545;47.480;19.024;2023-03-21T10:50:32;100045.94;;;34.44;15.45
58775;BME280;44545;47.480;19.024;2023-03-21T10:53:38;100046.03;;;35.64;14.01
58775;BME280;44545;47.480;19.024;2023-03-21T10:56:54;100041.84;;;34.89;14.00
58775;BME280;44545;47.480;19.024;2023-03-21T11:00:00;100037.16;;;35.78;13.63
58775;BME280;44545;47.480;19.024;2023-03-21T11:03:03;100034.34;;;36.43;13.06
58775;BME280;44545;47.480;19.024;2023-03-21T11:06:25;100042.66;;;34.73;14.51
58775;BME280;44545;47.480;19.024;2023-03-21T11:09:49;100022.25;;;35.69;14.16
58775;BME280;44545;47.480;19.024;2023-03-21T11:12:57;100013.97;;;37.55;12.99
58775;BME280;44545;47.480;19.024;2023-03-21T11:16:30;100024.13;;;38.50;12.01
58775;BME280;44545;47.480;19.024;2023-03-21T11:19:35;100015.22;;;38.34;12.20
58775;BME280;44545;47.480;19.024;2023-03-21T11:22:41;100015.03;;;38.23;11.98
58775;BME280;44545;47.480;19.024;2023-03-21T11:25:47;100005.41;;;36.12;13.05
58775;BME280;44545;47.480;19.024;2023-03-21T11:28:50;100007.50;;;35.24;13.50
58775;BME280;44545;47.480;19.024;2023-03-21T11:31:57;100013.75;;;27.39;20.21
58775;BME280;44545;47.480;19.024;2023-03-21T11:35:13;100020.09;;;23.68;25.48
58775;BME280;44545;47.480;19.024;2023-03-21T11:38:23;100001.75;;;26.67;22.43
58775;BME280;44545;47.480;19.024;2023-03-21T11:41:30;99999.31;;;27.02;21.61
58775;BME280;44545;47.480;19.024;2023-03-21T11:44:41;99999.69;;;23.66;25.77
58775;BME280;44545;47.480;19.024;2023-03-21T11:47:45;99999.44;;;28.58;20.63
58775;BME280;44545;47.480;19.024;2023-03-21T11:50:50;99992.00;;;29.96;17.98
58775;BME280;44545;47.480;19.024;2023-03-21T11:54:22;99985.78;;;27.10;21.18
58775;BME280;44545;47.480;19.024;2023-03-21T12:04:56;99980.88;;;20.85;30.56
58775;BME280;44545;47.480;19.024;2023-03-21T12:11:33;99980.13;;;19.18;32.56
58775;BME280;44545;47.480;19.024;2023-03-21T12:15:04;99988.19;;;18.66;33.93
58775;BME280;44545;47.480;19.024;2023-03-21T12:24:50;99972.09;;;19.85;33.64
58775;BME280;44545;47.480;19.024;2023-03-21T12:31:07;99968.81;;;19.30;34.97
58775;BME280;44545;47.480;19.024;2023-03-21T12:38:17;99964.03;;;18.43;36.76
58775;BME280;44545;47.480;19.024;2023-03-21T12:41:27;99966.12;;;18.09;37.25
58775;BME280;44545;47.480;19.024;2023-03-21T12:44:37;99966.31;;;18.20;37.35
58775;BME280;44545;47.480;19.024;2023-03-21T12:47:43;99971.84;;;17.84;38.32
58775;BME280;44545;47.480;19.024;2023-03-21T12:50:52;99969.91;;;17.75;38.88
58775;BME280;44545;47.480;19.024;2023-03-21T12:54:00;99965.13;;;17.55;39.08
58775;BME280;44545;47.480;19.024;2023-03-21T13:03:23;99959.62;;;17.43;38.36
58775;BME280;44545;47.480;19.024;2023-03-21T13:06:41;99951.22;;;17.19;38.95
58775;BME280;44545;47.480;19.024;2023-03-21T13:09:45;99945.03;;;17.62;38.04
58775;BME280;44545;47.480;19.024;2023-03-21T13:16:14;99921.25;;;19.30;34.60
58775;BME280;44545;47.480;19.024;2023-03-21T13:19:27;99920.41;;;19.35;34.26
58775;BME280;44545;47.480;19.024;2023-03-21T13:22:32;99925.94;;;18.83;35.60
58775;BME280;44545;47.480;19.024;2023-03-21T13:25:41;99922.03;;;18.01;35.41
58775;BME280;44545;47.480;19.024;2023-03-21T13:28:46;99932.81;;;17.66;35.45
58775;BME280;44545;47.480;19.024;2023-03-21T13:31:50;99931.06;;;17.66;35.62
58775;BME280;44545;47.480;19.024;2023-03-21T13:35:15;99920.94;;;17.42;34.91
58775;BME280;44545;47.480;19.024;2023-03-21T13:38:23;99926.59;;;17.64;34.83
58775;BME280;44545;47.480;19.024;2023-03-21T13:44:45;99921.09;;;17.51;36.46
58775;BME280;44545;47.480;19.024;2023-03-21T13:48:24;99920.16;;;17.02;38.00
58775;BME280;44545;47.480;19.024;2023-03-21T13:51:43;99920.81;;;16.92;37.09
58775;BME280;44545;47.480;19.024;2023-03-21T13:54:54;99914.81;;;16.99;36.47
58775;BME280;44545;47.480;19.024;2023-03-21T13:57:57;99905.78;;;17.30;35.82
58775;BME280;44545;47.480;19.024;2023-03-21T14:04:12;99905.16;;;17.91;34.89
58775;BME280;44545;47.480;19.024;2023-03-21T14:07:29;99910.75;;;17.61;36.02
58775;BME280;44545;47.480;19.024;2023-03-21T14:10:38;99899.31;;;17.60;35.52
58775;BME280;44545;47.480;19.024;2023-03-21T14:13:42;99902.41;;;17.38;35.70
58775;BME280;44545;47.480;19.024;2023-03-21T14:16:52;99886.75;;;17.47;35.52
58775;BME280;44545;47.480;19.024;2023-03-21T14:20:01;99893.38;;;17.73;34.71
58775;BME280;44545;47.480;19.024;2023-03-21T14:23:14;99890.91;;;17.32;34.95
58775;BME280;44545;47.480;19.024;2023-03-21T14:26:18;99886.50;;;17.33;35.51
58775;BME280;44545;47.480;19.024;2023-03-21T14:29:31;99874.44;;;17.46;35.65
58775;BME280;44545;47.480;19.024;2023-03-21T14:32:35;99871.75;;;17.43;35.36
58775;BME280;44545;47.480;19.024;2023-03-21T14:35:39;99860.09;;;17.31;36.27
58775;BME280;44545;47.480;19.024;2023-03-21T14:38:53;99871.66;;;17.38;35.48
58775;BME280;44545;47.480;19.024;2023-03-21T14:42:02;99859.34;;;17.37;35.31
58775;BME280;44545;47.480;19.024;2023-03-21T14:45:34;99863.91;;;17.46;35.32
58775;BME280;44545;47.480;19.024;2023-03-21T14:48:40;99861.88;;;17.31;36.06
58775;BME280;44545;47.480;19.024;2023-03-21T14:51:42;99860.78;;;17.20;37.27
58775;BME280;44545;47.480;19.024;2023-03-21T14:54:47;99860.56;;;17.09;37.20
58775;BME280;44545;47.480;19.024;2023-03-21T14:57:50;99866.38;;;16.93;37.60
58775;BME280;44545;47.480;19.024;2023-03-21T15:00:56;99865.44;;;16.89;38.27
58775;BME280;44545;47.480;19.024;2023-03-21T15:04:01;99869.13;;;16.99;38.27
58775;BME280;44545;47.480;19.024;2023-03-21T15:07:05;99866.59;;;17.02;37.62
58775;BME280;44545;47.480;19.024;2023-03-21T15:10:15;99876.66;;;16.79;36.94
58775;BME280;44545;47.480;19.024;2023-03-21T15:13:21;99870.06;;;16.60;37.05
58775;BME280;44545;47.480;19.024;2023-03-21T15:16:26;99864.84;;;16.61;37.25
58775;BME280;44545;47.480;19.024;2023-03-21T15:19:34;99865.63;;;16.57;37.79
58775;BME280;44545;47.480;19.024;2023-03-21T15:22:39;99862.97;;;16.57;37.94
58775;BME280;44545;47.480;19.024;2023-03-21T15:25:43;99857.25;;;16.36;38.23
58775;BME280;44545;47.480;19.024;2023-03-21T15:28:48;99854.53;;;16.31;38.25
58775;BME280;44545;47.480;19.024;2023-03-21T15:31:51;99857.47;;;16.07;39.13
58775;BME280;44545;47.480;19.024;2023-03-21T15:35:02;99861.53;;;15.93;40.20
58775;BME280;44545;47.480;19.024;2023-03-21T15:38:05;99856.03;;;15.84;41.11
58775;BME280;44545;47.480;19.024;2023-03-21T15:44:22;99859.69;;;15.55;42.59
58775;BME280;44545;47.480;19.024;2023-03-21T15:47:38;99868.28;;;15.50;42.99
58775;BME280;44545;47.480;19.024;2023-03-21T15:50:55;99867.31;;;15.46;43.06
58775;BME280;44545;47.480;19.024;2023-03-21T15:53:59;99865.00;;;15.25;43.79
58775;BME280;44545;47.480;19.024;2023-03-21T15:57:05;99862.09;;;15.14;44.16
58775;BME280;44545;47.480;19.024;2023-03-21T16:00:46;99863.66;;;15.08;44.54
58775;BME280;44545;47.480;19.024;2023-03-21T16:03:56;99857.38;;;15.03;44.43
58775;BME280;44545;47.480;19.024;2023-03-21T16:07:01;99860.66;;;14.94;44.19
58775;BME280;44545;47.480;19.024;2023-03-21T16:10:27;99858.47;;;14.79;44.40
58775;BME280;44545;47.480;19.024;2023-03-21T16:13:30;99860.09;;;14.74;44.38
58775;BME280;44545;47.480;19.024;2023-03-21T16:16:33;99855.41;;;14.64;44.64
58775;BME280;44545;47.480;19.024;2023-03-21T16:19:35;99859.31;;;14.49;45.08
